<?xml version="1.0" encoding="UTF-8" standalone="no" ?>
<gpx xmlns="http://www.topografix.com/GPX/1/1" xmlns:xsi="http://www.w3.org/2001/XMLSchema-instance" xsi:schemaLocation="http://www.topografix.com/GPX/1/1 http://www.topografix.com/GPX/1/1/gpx.xsd" version="1.1" creator="VisuGPX - https://www.visugpx.com">
  <metadata>
    <name>Boucle avant pays savoyard</name>
    <desc><![CDATA[Circuit 2 jours St Pierre d\'Alvey/La Motte Servolex/St Pierre d\'Alvey]]></desc>
  </metadata>
  <trk>
    <name><![CDATA[Parcours 2012-11-25 14:36]]></name>
    <trkseg>
      <trkpt lat="45.61576" lon="5.80288">
        <ele>1081.1999511719</ele>
        <time>2012-11-25T13:37:38Z</time>
      </trkpt>
      <trkpt lat="45.61579" lon="5.80096">
        <ele>1057.5999755859</ele>
        <time>2012-11-25T13:41:31Z</time>
      </trkpt>
      <trkpt lat="45.61574" lon="5.80007">
        <ele>1050.5999755859</ele>
        <time>2012-11-25T13:42:21Z</time>
      </trkpt>
      <trkpt lat="45.61578" lon="5.79973">
        <ele>1041.1999511719</ele>
        <time>2012-11-25T13:42:53Z</time>
      </trkpt>
      <trkpt lat="45.61567" lon="5.79936">
        <ele>1037.4000244141</ele>
        <time>2012-11-25T13:43:18Z</time>
      </trkpt>
      <trkpt lat="45.61551" lon="5.79861">
        <ele>1027</ele>
        <time>2012-11-25T13:44:01Z</time>
      </trkpt>
      <trkpt lat="45.61537" lon="5.79814">
        <ele>1019</ele>
        <time>2012-11-25T13:45:28Z</time>
      </trkpt>
      <trkpt lat="45.61529" lon="5.79766">
        <ele>1002</ele>
        <time>2012-11-25T13:46:30Z</time>
      </trkpt>
      <trkpt lat="45.61528" lon="5.79753">
        <ele>999.80004882812</ele>
        <time>2012-11-25T13:47:04Z</time>
      </trkpt>
      <trkpt lat="45.61499" lon="5.79717">
        <ele>991.09997558594</ele>
        <time>2012-11-25T13:47:22Z</time>
      </trkpt>
      <trkpt lat="45.61473" lon="5.79696">
        <ele>988.5</ele>
        <time>2012-11-25T13:48:47Z</time>
      </trkpt>
      <trkpt lat="45.6139" lon="5.79611">
        <ele>969.19995117188</ele>
        <time>2012-11-25T13:51:19Z</time>
      </trkpt>
      <trkpt lat="45.61313" lon="5.7956">
        <ele>954.5</ele>
        <time>2012-11-25T13:52:31Z</time>
      </trkpt>
      <trkpt lat="45.61273" lon="5.79539">
        <ele>949.80004882812</ele>
        <time>2012-11-25T13:53:09Z</time>
      </trkpt>
      <trkpt lat="45.61236" lon="5.79498">
        <ele>941.5</ele>
        <time>2012-11-25T13:53:48Z</time>
      </trkpt>
      <trkpt lat="45.61222" lon="5.79466">
        <ele>937.19995117188</ele>
        <time>2012-11-25T13:54:15Z</time>
      </trkpt>
      <trkpt lat="45.61198" lon="5.79448">
        <ele>927.19995117188</ele>
        <time>2012-11-25T13:54:50Z</time>
      </trkpt>
      <trkpt lat="45.61183" lon="5.7943">
        <ele>926.09997558594</ele>
        <time>2012-11-25T13:55:04Z</time>
      </trkpt>
      <trkpt lat="45.61174" lon="5.79405">
        <ele>918.90002441406</ele>
        <time>2012-11-25T13:55:26Z</time>
      </trkpt>
      <trkpt lat="45.61163" lon="5.7937">
        <ele>912</ele>
        <time>2012-11-25T13:55:45Z</time>
      </trkpt>
      <trkpt lat="45.61161" lon="5.79343">
        <ele>902.30004882812</ele>
        <time>2012-11-25T13:56:03Z</time>
      </trkpt>
      <trkpt lat="45.61155" lon="5.79316">
        <ele>898.80004882812</ele>
        <time>2012-11-25T13:56:16Z</time>
      </trkpt>
      <trkpt lat="45.61153" lon="5.79274">
        <ele>892.80004882812</ele>
        <time>2012-11-25T13:56:42Z</time>
      </trkpt>
      <trkpt lat="45.61149" lon="5.79247">
        <ele>890.5</ele>
        <time>2012-11-25T13:57:00Z</time>
      </trkpt>
      <trkpt lat="45.61147" lon="5.79208">
        <ele>888.30004882812</ele>
        <time>2012-11-25T13:57:32Z</time>
      </trkpt>
      <trkpt lat="45.61149" lon="5.7914">
        <ele>886.19995117188</ele>
        <time>2012-11-25T13:58:13Z</time>
      </trkpt>
      <trkpt lat="45.61155" lon="5.79088">
        <ele>883</ele>
        <time>2012-11-25T13:58:44Z</time>
      </trkpt>
      <trkpt lat="45.61147" lon="5.79049">
        <ele>884.19995117188</ele>
        <time>2012-11-25T13:59:09Z</time>
      </trkpt>
      <trkpt lat="45.61056" lon="5.78778">
        <ele>844.69995117188</ele>
        <time>2012-11-25T14:02:40Z</time>
      </trkpt>
      <trkpt lat="45.61029" lon="5.78612">
        <ele>805.90002441406</ele>
        <time>2012-11-25T14:04:56Z</time>
      </trkpt>
      <trkpt lat="45.61097" lon="5.78242">
        <ele>745.5</ele>
        <time>2012-11-25T14:09:33Z</time>
      </trkpt>
      <trkpt lat="45.61099" lon="5.78196">
        <ele>727.19995117188</ele>
        <time>2012-11-25T14:13:01Z</time>
      </trkpt>
      <trkpt lat="45.6108" lon="5.7819">
        <ele>726.19995117188</ele>
        <time>2012-11-25T14:13:17Z</time>
      </trkpt>
      <trkpt lat="45.61066" lon="5.78173">
        <ele>725.90002441406</ele>
        <time>2012-11-25T14:13:29Z</time>
      </trkpt>
      <trkpt lat="45.6105" lon="5.78155">
        <ele>724.80004882812</ele>
        <time>2012-11-25T14:13:41Z</time>
      </trkpt>
      <trkpt lat="45.61044" lon="5.78126">
        <ele>717.5</ele>
        <time>2012-11-25T14:13:54Z</time>
      </trkpt>
      <trkpt lat="45.61035" lon="5.78104">
        <ele>713.59997558594</ele>
        <time>2012-11-25T14:14:06Z</time>
      </trkpt>
      <trkpt lat="45.61023" lon="5.78081">
        <ele>711.09997558594</ele>
        <time>2012-11-25T14:14:19Z</time>
      </trkpt>
      <trkpt lat="45.61014" lon="5.78055">
        <ele>708.30004882812</ele>
        <time>2012-11-25T14:14:29Z</time>
      </trkpt>
      <trkpt lat="45.60996" lon="5.78021">
        <ele>705.90002441406</ele>
        <time>2012-11-25T14:14:45Z</time>
      </trkpt>
      <trkpt lat="45.60981" lon="5.78004">
        <ele>703.19995117188</ele>
        <time>2012-11-25T14:14:59Z</time>
      </trkpt>
      <trkpt lat="45.6096" lon="5.77974">
        <ele>699.40002441406</ele>
        <time>2012-11-25T14:15:18Z</time>
      </trkpt>
      <trkpt lat="45.60939" lon="5.77949">
        <ele>697.40002441406</ele>
        <time>2012-11-25T14:15:38Z</time>
      </trkpt>
      <trkpt lat="45.60942" lon="5.77922">
        <ele>695.90002441406</ele>
        <time>2012-11-25T14:15:49Z</time>
      </trkpt>
      <trkpt lat="45.60952" lon="5.779">
        <ele>694.5</ele>
        <time>2012-11-25T14:16:00Z</time>
      </trkpt>
      <trkpt lat="45.60968" lon="5.77862">
        <ele>694.69995117188</ele>
        <time>2012-11-25T14:16:20Z</time>
      </trkpt>
      <trkpt lat="45.60984" lon="5.77845">
        <ele>696.80004882812</ele>
        <time>2012-11-25T14:16:29Z</time>
      </trkpt>
      <trkpt lat="45.61005" lon="5.7783">
        <ele>696.09997558594</ele>
        <time>2012-11-25T14:16:37Z</time>
      </trkpt>
      <trkpt lat="45.61023" lon="5.77819">
        <ele>696.40002441406</ele>
        <time>2012-11-25T14:16:44Z</time>
      </trkpt>
      <trkpt lat="45.61041" lon="5.77814">
        <ele>697.40002441406</ele>
        <time>2012-11-25T14:16:55Z</time>
      </trkpt>
      <trkpt lat="45.6106" lon="5.77818">
        <ele>697.69995117188</ele>
        <time>2012-11-25T14:17:07Z</time>
      </trkpt>
      <trkpt lat="45.61077" lon="5.7783">
        <ele>697.69995117188</ele>
        <time>2012-11-25T14:17:20Z</time>
      </trkpt>
      <trkpt lat="45.61096" lon="5.77837">
        <ele>697.59997558594</ele>
        <time>2012-11-25T14:17:32Z</time>
      </trkpt>
      <trkpt lat="45.61115" lon="5.7784">
        <ele>697.59997558594</ele>
        <time>2012-11-25T14:17:45Z</time>
      </trkpt>
      <trkpt lat="45.6112" lon="5.77814">
        <ele>696.90002441406</ele>
        <time>2012-11-25T14:17:59Z</time>
      </trkpt>
      <trkpt lat="45.61121" lon="5.77788">
        <ele>695.09997558594</ele>
        <time>2012-11-25T14:18:11Z</time>
      </trkpt>
      <trkpt lat="45.61121" lon="5.77761">
        <ele>693.40002441406</ele>
        <time>2012-11-25T14:18:25Z</time>
      </trkpt>
      <trkpt lat="45.61123" lon="5.77718">
        <ele>692.59997558594</ele>
        <time>2012-11-25T14:18:43Z</time>
      </trkpt>
      <trkpt lat="45.61123" lon="5.7769">
        <ele>694</ele>
        <time>2012-11-25T14:18:57Z</time>
      </trkpt>
      <trkpt lat="45.61111" lon="5.77652">
        <ele>693.90002441406</ele>
        <time>2012-11-25T14:19:18Z</time>
      </trkpt>
      <trkpt lat="45.61101" lon="5.7763">
        <ele>694.59997558594</ele>
        <time>2012-11-25T14:19:40Z</time>
      </trkpt>
      <trkpt lat="45.61092" lon="5.77606">
        <ele>694.80004882812</ele>
        <time>2012-11-25T14:19:46Z</time>
      </trkpt>
      <trkpt lat="45.61086" lon="5.77562">
        <ele>694</ele>
        <time>2012-11-25T14:19:52Z</time>
      </trkpt>
      <trkpt lat="45.61083" lon="5.77532">
        <ele>693.09997558594</ele>
        <time>2012-11-25T14:19:56Z</time>
      </trkpt>
      <trkpt lat="45.61077" lon="5.77504">
        <ele>692.40002441406</ele>
        <time>2012-11-25T14:20:00Z</time>
      </trkpt>
      <trkpt lat="45.61069" lon="5.77474">
        <ele>692.09997558594</ele>
        <time>2012-11-25T14:20:05Z</time>
      </trkpt>
      <trkpt lat="45.61061" lon="5.7745">
        <ele>691.5</ele>
        <time>2012-11-25T14:20:20Z</time>
      </trkpt>
      <trkpt lat="45.61057" lon="5.77439">
        <ele>691</ele>
        <time>2012-11-25T14:21:36Z</time>
      </trkpt>
      <trkpt lat="45.61053" lon="5.77411">
        <ele>689.69995117188</ele>
        <time>2012-11-25T14:23:24Z</time>
      </trkpt>
      <trkpt lat="45.6107" lon="5.77394">
        <ele>691.09997558594</ele>
        <time>2012-11-25T14:23:36Z</time>
      </trkpt>
      <trkpt lat="45.6109" lon="5.77383">
        <ele>692.09997558594</ele>
        <time>2012-11-25T14:23:42Z</time>
      </trkpt>
      <trkpt lat="45.61112" lon="5.77373">
        <ele>692.09997558594</ele>
        <time>2012-11-25T14:23:48Z</time>
      </trkpt>
      <trkpt lat="45.6113" lon="5.77368">
        <ele>691.80004882812</ele>
        <time>2012-11-25T14:23:57Z</time>
      </trkpt>
      <trkpt lat="45.61144" lon="5.77352">
        <ele>691</ele>
        <time>2012-11-25T14:24:11Z</time>
      </trkpt>
      <trkpt lat="45.61158" lon="5.77332">
        <ele>690.40002441406</ele>
        <time>2012-11-25T14:24:24Z</time>
      </trkpt>
      <trkpt lat="45.61173" lon="5.77315">
        <ele>687.59997558594</ele>
        <time>2012-11-25T14:24:37Z</time>
      </trkpt>
      <trkpt lat="45.61183" lon="5.77291">
        <ele>682.5</ele>
        <time>2012-11-25T14:24:52Z</time>
      </trkpt>
      <trkpt lat="45.61192" lon="5.77267">
        <ele>678.80004882812</ele>
        <time>2012-11-25T14:25:07Z</time>
      </trkpt>
      <trkpt lat="45.61204" lon="5.77246">
        <ele>677.5</ele>
        <time>2012-11-25T14:25:19Z</time>
      </trkpt>
      <trkpt lat="45.61213" lon="5.77222">
        <ele>674.5</ele>
        <time>2012-11-25T14:25:34Z</time>
      </trkpt>
      <trkpt lat="45.61219" lon="5.77196">
        <ele>673.09997558594</ele>
        <time>2012-11-25T14:25:48Z</time>
      </trkpt>
      <trkpt lat="45.61223" lon="5.7717">
        <ele>672.19995117188</ele>
        <time>2012-11-25T14:26:03Z</time>
      </trkpt>
      <trkpt lat="45.61222" lon="5.77143">
        <ele>673.19995117188</ele>
        <time>2012-11-25T14:26:16Z</time>
      </trkpt>
      <trkpt lat="45.61211" lon="5.77119">
        <ele>671.80004882812</ele>
        <time>2012-11-25T14:26:33Z</time>
      </trkpt>
      <trkpt lat="45.61219" lon="5.77087">
        <ele>668.5</ele>
        <time>2012-11-25T14:26:53Z</time>
      </trkpt>
      <trkpt lat="45.61239" lon="5.77087">
        <ele>667.59997558594</ele>
        <time>2012-11-25T14:27:06Z</time>
      </trkpt>
      <trkpt lat="45.61258" lon="5.7709">
        <ele>668.80004882812</ele>
        <time>2012-11-25T14:27:18Z</time>
      </trkpt>
      <trkpt lat="45.61276" lon="5.77103">
        <ele>667.59997558594</ele>
        <time>2012-11-25T14:27:31Z</time>
      </trkpt>
      <trkpt lat="45.61292" lon="5.7712">
        <ele>665</ele>
        <time>2012-11-25T14:27:45Z</time>
      </trkpt>
      <trkpt lat="45.61301" lon="5.77127">
        <ele>664</ele>
        <time>2012-11-25T14:27:52Z</time>
      </trkpt>
      <trkpt lat="45.61311" lon="5.77129">
        <ele>663</ele>
        <time>2012-11-25T14:27:59Z</time>
      </trkpt>
      <trkpt lat="45.6132" lon="5.77114">
        <ele>658.80004882812</ele>
        <time>2012-11-25T14:28:15Z</time>
      </trkpt>
      <trkpt lat="45.6132" lon="5.77085">
        <ele>656.40002441406</ele>
        <time>2012-11-25T14:28:29Z</time>
      </trkpt>
      <trkpt lat="45.61321" lon="5.77072">
        <ele>656.09997558594</ele>
        <time>2012-11-25T14:28:35Z</time>
      </trkpt>
      <trkpt lat="45.61324" lon="5.77042">
        <ele>655.09997558594</ele>
        <time>2012-11-25T14:28:49Z</time>
      </trkpt>
      <trkpt lat="45.61333" lon="5.77019">
        <ele>654.19995117188</ele>
        <time>2012-11-25T14:29:00Z</time>
      </trkpt>
      <trkpt lat="45.61334" lon="5.76994">
        <ele>649.30004882812</ele>
        <time>2012-11-25T14:29:14Z</time>
      </trkpt>
      <trkpt lat="45.61318" lon="5.76977">
        <ele>645.90002441406</ele>
        <time>2012-11-25T14:29:28Z</time>
      </trkpt>
      <trkpt lat="45.61304" lon="5.7696">
        <ele>642.90002441406</ele>
        <time>2012-11-25T14:29:41Z</time>
      </trkpt>
      <trkpt lat="45.61289" lon="5.76942">
        <ele>641.40002441406</ele>
        <time>2012-11-25T14:29:54Z</time>
      </trkpt>
      <trkpt lat="45.61274" lon="5.76922">
        <ele>637.90002441406</ele>
        <time>2012-11-25T14:30:09Z</time>
      </trkpt>
      <trkpt lat="45.61252" lon="5.76892">
        <ele>636</ele>
        <time>2012-11-25T14:30:29Z</time>
      </trkpt>
      <trkpt lat="45.61247" lon="5.76865">
        <ele>635.30004882812</ele>
        <time>2012-11-25T14:30:40Z</time>
      </trkpt>
      <trkpt lat="45.61251" lon="5.76838">
        <ele>633.90002441406</ele>
        <time>2012-11-25T14:30:51Z</time>
      </trkpt>
      <trkpt lat="45.6126" lon="5.76812">
        <ele>632.09997558594</ele>
        <time>2012-11-25T14:31:03Z</time>
      </trkpt>
      <trkpt lat="45.61268" lon="5.76788">
        <ele>630.40002441406</ele>
        <time>2012-11-25T14:31:15Z</time>
      </trkpt>
      <trkpt lat="45.61277" lon="5.76763">
        <ele>627.90002441406</ele>
        <time>2012-11-25T14:31:28Z</time>
      </trkpt>
      <trkpt lat="45.61278" lon="5.76751">
        <ele>627.19995117188</ele>
        <time>2012-11-25T14:31:34Z</time>
      </trkpt>
      <trkpt lat="45.61276" lon="5.76737">
        <ele>626.59997558594</ele>
        <time>2012-11-25T14:31:41Z</time>
      </trkpt>
      <trkpt lat="45.6127" lon="5.76726">
        <ele>624.90002441406</ele>
        <time>2012-11-25T14:31:48Z</time>
      </trkpt>
      <trkpt lat="45.61255" lon="5.76708">
        <ele>622.80004882812</ele>
        <time>2012-11-25T14:32:02Z</time>
      </trkpt>
      <trkpt lat="45.6124" lon="5.7669">
        <ele>621.5</ele>
        <time>2012-11-25T14:32:14Z</time>
      </trkpt>
      <trkpt lat="45.61225" lon="5.76671">
        <ele>619.59997558594</ele>
        <time>2012-11-25T14:32:28Z</time>
      </trkpt>
      <trkpt lat="45.61211" lon="5.76653">
        <ele>618.5</ele>
        <time>2012-11-25T14:32:40Z</time>
      </trkpt>
      <trkpt lat="45.612" lon="5.7663">
        <ele>616.30004882812</ele>
        <time>2012-11-25T14:32:54Z</time>
      </trkpt>
      <trkpt lat="45.61196" lon="5.76603">
        <ele>614.69995117188</ele>
        <time>2012-11-25T14:33:06Z</time>
      </trkpt>
      <trkpt lat="45.61199" lon="5.76577">
        <ele>612.90002441406</ele>
        <time>2012-11-25T14:33:19Z</time>
      </trkpt>
      <trkpt lat="45.612" lon="5.76564">
        <ele>612.09997558594</ele>
        <time>2012-11-25T14:33:28Z</time>
      </trkpt>
      <trkpt lat="45.61197" lon="5.76536">
        <ele>611.90002441406</ele>
        <time>2012-11-25T14:33:48Z</time>
      </trkpt>
      <trkpt lat="45.61194" lon="5.76523">
        <ele>611.5</ele>
        <time>2012-11-25T14:33:56Z</time>
      </trkpt>
      <trkpt lat="45.61175" lon="5.76524">
        <ele>609.80004882812</ele>
        <time>2012-11-25T14:34:10Z</time>
      </trkpt>
      <trkpt lat="45.61155" lon="5.7653">
        <ele>610.09997558594</ele>
        <time>2012-11-25T14:34:22Z</time>
      </trkpt>
      <trkpt lat="45.61136" lon="5.76536">
        <ele>610.80004882812</ele>
        <time>2012-11-25T14:34:34Z</time>
      </trkpt>
      <trkpt lat="45.61117" lon="5.76544">
        <ele>610.59997558594</ele>
        <time>2012-11-25T14:34:46Z</time>
      </trkpt>
      <trkpt lat="45.61099" lon="5.76545">
        <ele>609.69995117188</ele>
        <time>2012-11-25T14:35:17Z</time>
      </trkpt>
      <trkpt lat="45.61097" lon="5.76532">
        <ele>608.19995117188</ele>
        <time>2012-11-25T14:35:23Z</time>
      </trkpt>
      <trkpt lat="45.61095" lon="5.76505">
        <ele>607.30004882812</ele>
        <time>2012-11-25T14:35:36Z</time>
      </trkpt>
      <trkpt lat="45.61093" lon="5.76479">
        <ele>606.40002441406</ele>
        <time>2012-11-25T14:35:49Z</time>
      </trkpt>
      <trkpt lat="45.61094" lon="5.76453">
        <ele>603.59997558594</ele>
        <time>2012-11-25T14:36:01Z</time>
      </trkpt>
      <trkpt lat="45.61093" lon="5.76426">
        <ele>601.40002441406</ele>
        <time>2012-11-25T14:36:13Z</time>
      </trkpt>
      <trkpt lat="45.61091" lon="5.76412">
        <ele>600.5</ele>
        <time>2012-11-25T14:36:19Z</time>
      </trkpt>
      <trkpt lat="45.6109" lon="5.76397">
        <ele>598.19995117188</ele>
        <time>2012-11-25T14:36:26Z</time>
      </trkpt>
      <trkpt lat="45.61088" lon="5.76382">
        <ele>596.59997558594</ele>
        <time>2012-11-25T14:36:33Z</time>
      </trkpt>
      <trkpt lat="45.61086" lon="5.76369">
        <ele>595.30004882812</ele>
        <time>2012-11-25T14:36:40Z</time>
      </trkpt>
      <trkpt lat="45.61082" lon="5.76355">
        <ele>594.30004882812</ele>
        <time>2012-11-25T14:36:46Z</time>
      </trkpt>
      <trkpt lat="45.6108" lon="5.76341">
        <ele>591.90002441406</ele>
        <time>2012-11-25T14:36:56Z</time>
      </trkpt>
      <trkpt lat="45.61077" lon="5.76328">
        <ele>589.40002441406</ele>
        <time>2012-11-25T14:37:02Z</time>
      </trkpt>
      <trkpt lat="45.61075" lon="5.76315">
        <ele>587.59997558594</ele>
        <time>2012-11-25T14:37:08Z</time>
      </trkpt>
      <trkpt lat="45.61073" lon="5.76302">
        <ele>586.30004882812</ele>
        <time>2012-11-25T14:37:14Z</time>
      </trkpt>
      <trkpt lat="45.61069" lon="5.76277">
        <ele>582.5</ele>
        <time>2012-11-25T14:37:26Z</time>
      </trkpt>
      <trkpt lat="45.61067" lon="5.76264">
        <ele>580.59997558594</ele>
        <time>2012-11-25T14:37:32Z</time>
      </trkpt>
      <trkpt lat="45.61064" lon="5.76251">
        <ele>579.40002441406</ele>
        <time>2012-11-25T14:37:38Z</time>
      </trkpt>
      <trkpt lat="45.61063" lon="5.76238">
        <ele>578</ele>
        <time>2012-11-25T14:37:44Z</time>
      </trkpt>
      <trkpt lat="45.61062" lon="5.76224">
        <ele>576.80004882812</ele>
        <time>2012-11-25T14:37:50Z</time>
      </trkpt>
      <trkpt lat="45.6106" lon="5.76197">
        <ele>574.19995117188</ele>
        <time>2012-11-25T14:38:03Z</time>
      </trkpt>
      <trkpt lat="45.61059" lon="5.76183">
        <ele>572.09997558594</ele>
        <time>2012-11-25T14:38:11Z</time>
      </trkpt>
      <trkpt lat="45.61057" lon="5.76169">
        <ele>570.90002441406</ele>
        <time>2012-11-25T14:38:18Z</time>
      </trkpt>
      <trkpt lat="45.61056" lon="5.76156">
        <ele>569.90002441406</ele>
        <time>2012-11-25T14:38:25Z</time>
      </trkpt>
      <trkpt lat="45.61054" lon="5.76141">
        <ele>569.80004882812</ele>
        <time>2012-11-25T14:38:32Z</time>
      </trkpt>
      <trkpt lat="45.61051" lon="5.76128">
        <ele>570</ele>
        <time>2012-11-25T14:38:38Z</time>
      </trkpt>
      <trkpt lat="45.61048" lon="5.76115">
        <ele>568.59997558594</ele>
        <time>2012-11-25T14:38:45Z</time>
      </trkpt>
      <trkpt lat="45.61046" lon="5.76101">
        <ele>567.69995117188</ele>
        <time>2012-11-25T14:38:52Z</time>
      </trkpt>
      <trkpt lat="45.61044" lon="5.76088">
        <ele>567.40002441406</ele>
        <time>2012-11-25T14:38:59Z</time>
      </trkpt>
      <trkpt lat="45.61042" lon="5.76075">
        <ele>566.30004882812</ele>
        <time>2012-11-25T14:39:06Z</time>
      </trkpt>
      <trkpt lat="45.61043" lon="5.76061">
        <ele>565.09997558594</ele>
        <time>2012-11-25T14:39:13Z</time>
      </trkpt>
      <trkpt lat="45.61042" lon="5.76047">
        <ele>564.30004882812</ele>
        <time>2012-11-25T14:39:20Z</time>
      </trkpt>
      <trkpt lat="45.61039" lon="5.76034">
        <ele>563.30004882812</ele>
        <time>2012-11-25T14:39:27Z</time>
      </trkpt>
      <trkpt lat="45.61036" lon="5.76022">
        <ele>562.40002441406</ele>
        <time>2012-11-25T14:39:33Z</time>
      </trkpt>
      <trkpt lat="45.61034" lon="5.76008">
        <ele>561.5</ele>
        <time>2012-11-25T14:39:40Z</time>
      </trkpt>
      <trkpt lat="45.61029" lon="5.75981">
        <ele>560.30004882812</ele>
        <time>2012-11-25T14:39:53Z</time>
      </trkpt>
      <trkpt lat="45.61022" lon="5.75955">
        <ele>559.80004882812</ele>
        <time>2012-11-25T14:40:06Z</time>
      </trkpt>
      <trkpt lat="45.61018" lon="5.75941">
        <ele>558.40002441406</ele>
        <time>2012-11-25T14:40:13Z</time>
      </trkpt>
      <trkpt lat="45.61008" lon="5.75917">
        <ele>557.30004882812</ele>
        <time>2012-11-25T14:40:26Z</time>
      </trkpt>
      <trkpt lat="45.60997" lon="5.7589">
        <ele>556</ele>
        <time>2012-11-25T14:40:36Z</time>
      </trkpt>
      <trkpt lat="45.60986" lon="5.75868">
        <ele>555.90002441406</ele>
        <time>2012-11-25T14:40:42Z</time>
      </trkpt>
      <trkpt lat="45.60973" lon="5.75845">
        <ele>555.90002441406</ele>
        <time>2012-11-25T14:40:52Z</time>
      </trkpt>
      <trkpt lat="45.60962" lon="5.75823">
        <ele>556.69995117188</ele>
        <time>2012-11-25T14:41:05Z</time>
      </trkpt>
      <trkpt lat="45.60952" lon="5.75801">
        <ele>553.69995117188</ele>
        <time>2012-11-25T14:41:19Z</time>
      </trkpt>
      <trkpt lat="45.60943" lon="5.75779">
        <ele>554.40002441406</ele>
        <time>2012-11-25T14:41:31Z</time>
      </trkpt>
      <trkpt lat="45.60936" lon="5.75753">
        <ele>555.40002441406</ele>
        <time>2012-11-25T14:41:43Z</time>
      </trkpt>
      <trkpt lat="45.60932" lon="5.75726">
        <ele>555.19995117188</ele>
        <time>2012-11-25T14:41:56Z</time>
      </trkpt>
      <trkpt lat="45.6093" lon="5.75699">
        <ele>555.09997558594</ele>
        <time>2012-11-25T14:42:09Z</time>
      </trkpt>
      <trkpt lat="45.6093" lon="5.75686">
        <ele>554.90002441406</ele>
        <time>2012-11-25T14:42:15Z</time>
      </trkpt>
      <trkpt lat="45.60928" lon="5.75673">
        <ele>555</ele>
        <time>2012-11-25T14:42:21Z</time>
      </trkpt>
      <trkpt lat="45.60927" lon="5.7566">
        <ele>554.90002441406</ele>
        <time>2012-11-25T14:42:27Z</time>
      </trkpt>
      <trkpt lat="45.60927" lon="5.75647">
        <ele>554.80004882812</ele>
        <time>2012-11-25T14:42:33Z</time>
      </trkpt>
      <trkpt lat="45.60927" lon="5.75633">
        <ele>554.80004882812</ele>
        <time>2012-11-25T14:42:39Z</time>
      </trkpt>
      <trkpt lat="45.60927" lon="5.75619">
        <ele>555.19995117188</ele>
        <time>2012-11-25T14:42:45Z</time>
      </trkpt>
      <trkpt lat="45.60928" lon="5.75607">
        <ele>555.80004882812</ele>
        <time>2012-11-25T14:42:51Z</time>
      </trkpt>
      <trkpt lat="45.60928" lon="5.75593">
        <ele>557.30004882812</ele>
        <time>2012-11-25T14:42:57Z</time>
      </trkpt>
      <trkpt lat="45.6093" lon="5.7558">
        <ele>557.59997558594</ele>
        <time>2012-11-25T14:43:03Z</time>
      </trkpt>
      <trkpt lat="45.60931" lon="5.75567">
        <ele>558.19995117188</ele>
        <time>2012-11-25T14:43:09Z</time>
      </trkpt>
      <trkpt lat="45.60932" lon="5.75554">
        <ele>559.09997558594</ele>
        <time>2012-11-25T14:43:15Z</time>
      </trkpt>
      <trkpt lat="45.60932" lon="5.75541">
        <ele>559.69995117188</ele>
        <time>2012-11-25T14:43:21Z</time>
      </trkpt>
      <trkpt lat="45.60933" lon="5.75528">
        <ele>560.09997558594</ele>
        <time>2012-11-25T14:43:27Z</time>
      </trkpt>
      <trkpt lat="45.60932" lon="5.75515">
        <ele>560.90002441406</ele>
        <time>2012-11-25T14:43:33Z</time>
      </trkpt>
      <trkpt lat="45.60931" lon="5.75501">
        <ele>561.80004882812</ele>
        <time>2012-11-25T14:43:39Z</time>
      </trkpt>
      <trkpt lat="45.6093" lon="5.75488">
        <ele>562.30004882812</ele>
        <time>2012-11-25T14:43:45Z</time>
      </trkpt>
      <trkpt lat="45.60929" lon="5.75475">
        <ele>562.69995117188</ele>
        <time>2012-11-25T14:43:51Z</time>
      </trkpt>
      <trkpt lat="45.60928" lon="5.75462">
        <ele>563.30004882812</ele>
        <time>2012-11-25T14:43:57Z</time>
      </trkpt>
      <trkpt lat="45.60928" lon="5.75446">
        <ele>564.40002441406</ele>
        <time>2012-11-25T14:44:04Z</time>
      </trkpt>
      <trkpt lat="45.60927" lon="5.75432">
        <ele>565.09997558594</ele>
        <time>2012-11-25T14:44:11Z</time>
      </trkpt>
      <trkpt lat="45.60925" lon="5.75404">
        <ele>567.09997558594</ele>
        <time>2012-11-25T14:44:24Z</time>
      </trkpt>
      <trkpt lat="45.60923" lon="5.75391">
        <ele>568.30004882812</ele>
        <time>2012-11-25T14:44:30Z</time>
      </trkpt>
      <trkpt lat="45.60922" lon="5.75376">
        <ele>568.80004882812</ele>
        <time>2012-11-25T14:44:37Z</time>
      </trkpt>
      <trkpt lat="45.60921" lon="5.75363">
        <ele>569.19995117188</ele>
        <time>2012-11-25T14:44:43Z</time>
      </trkpt>
      <trkpt lat="45.60919" lon="5.75349">
        <ele>570.19995117188</ele>
        <time>2012-11-25T14:44:50Z</time>
      </trkpt>
      <trkpt lat="45.60919" lon="5.75335">
        <ele>570.09997558594</ele>
        <time>2012-11-25T14:44:56Z</time>
      </trkpt>
      <trkpt lat="45.6092" lon="5.75308">
        <ele>571.19995117188</ele>
        <time>2012-11-25T14:45:08Z</time>
      </trkpt>
      <trkpt lat="45.60923" lon="5.75281">
        <ele>571.5</ele>
        <time>2012-11-25T14:45:20Z</time>
      </trkpt>
      <trkpt lat="45.60927" lon="5.75255">
        <ele>572.19995117188</ele>
        <time>2012-11-25T14:45:33Z</time>
      </trkpt>
      <trkpt lat="45.60929" lon="5.75242">
        <ele>573</ele>
        <time>2012-11-25T14:45:39Z</time>
      </trkpt>
      <trkpt lat="45.6093" lon="5.75228">
        <ele>574</ele>
        <time>2012-11-25T14:45:45Z</time>
      </trkpt>
      <trkpt lat="45.60931" lon="5.75214">
        <ele>575.59997558594</ele>
        <time>2012-11-25T14:45:51Z</time>
      </trkpt>
      <trkpt lat="45.60932" lon="5.75201">
        <ele>576.90002441406</ele>
        <time>2012-11-25T14:45:57Z</time>
      </trkpt>
      <trkpt lat="45.60935" lon="5.75187">
        <ele>577.30004882812</ele>
        <time>2012-11-25T14:46:05Z</time>
      </trkpt>
      <trkpt lat="45.60937" lon="5.75161">
        <ele>578.80004882812</ele>
        <time>2012-11-25T14:46:18Z</time>
      </trkpt>
      <trkpt lat="45.60937" lon="5.75147">
        <ele>580.5</ele>
        <time>2012-11-25T14:46:24Z</time>
      </trkpt>
      <trkpt lat="45.60936" lon="5.75132">
        <ele>583.19995117188</ele>
        <time>2012-11-25T14:46:30Z</time>
      </trkpt>
      <trkpt lat="45.60935" lon="5.75118">
        <ele>586.30004882812</ele>
        <time>2012-11-25T14:46:35Z</time>
      </trkpt>
      <trkpt lat="45.60931" lon="5.75084">
        <ele>586.19995117188</ele>
        <time>2012-11-25T14:46:46Z</time>
      </trkpt>
      <trkpt lat="45.60934" lon="5.75054">
        <ele>586.80004882812</ele>
        <time>2012-11-25T14:46:50Z</time>
      </trkpt>
      <trkpt lat="45.60936" lon="5.75042">
        <ele>587.09997558594</ele>
        <time>2012-11-25T14:46:52Z</time>
      </trkpt>
      <trkpt lat="45.60939" lon="5.75025">
        <ele>588</ele>
        <time>2012-11-25T14:46:55Z</time>
      </trkpt>
      <trkpt lat="45.60939" lon="5.75012">
        <ele>590.19995117188</ele>
        <time>2012-11-25T14:47:00Z</time>
      </trkpt>
      <trkpt lat="45.60938" lon="5.74998">
        <ele>593.09997558594</ele>
        <time>2012-11-25T14:47:08Z</time>
      </trkpt>
      <trkpt lat="45.60938" lon="5.74985">
        <ele>594.59997558594</ele>
        <time>2012-11-25T14:47:17Z</time>
      </trkpt>
      <trkpt lat="45.60935" lon="5.74955">
        <ele>596.5</ele>
        <time>2012-11-25T14:47:47Z</time>
      </trkpt>
      <trkpt lat="45.60938" lon="5.74928">
        <ele>597.19995117188</ele>
        <time>2012-11-25T14:48:01Z</time>
      </trkpt>
      <trkpt lat="45.60938" lon="5.74914">
        <ele>598.30004882812</ele>
        <time>2012-11-25T14:48:08Z</time>
      </trkpt>
      <trkpt lat="45.60938" lon="5.74901">
        <ele>600</ele>
        <time>2012-11-25T14:48:15Z</time>
      </trkpt>
      <trkpt lat="45.60938" lon="5.74887">
        <ele>601.09997558594</ele>
        <time>2012-11-25T14:48:21Z</time>
      </trkpt>
      <trkpt lat="45.60939" lon="5.74873">
        <ele>601.69995117188</ele>
        <time>2012-11-25T14:48:28Z</time>
      </trkpt>
      <trkpt lat="45.6094" lon="5.74859">
        <ele>601.90002441406</ele>
        <time>2012-11-25T14:48:35Z</time>
      </trkpt>
      <trkpt lat="45.60941" lon="5.74845">
        <ele>602.19995117188</ele>
        <time>2012-11-25T14:48:42Z</time>
      </trkpt>
      <trkpt lat="45.60941" lon="5.74831">
        <ele>602.90002441406</ele>
        <time>2012-11-25T14:48:49Z</time>
      </trkpt>
      <trkpt lat="45.60941" lon="5.74816">
        <ele>603.59997558594</ele>
        <time>2012-11-25T14:48:56Z</time>
      </trkpt>
      <trkpt lat="45.60941" lon="5.74803">
        <ele>605.30004882812</ele>
        <time>2012-11-25T14:49:02Z</time>
      </trkpt>
      <trkpt lat="45.6094" lon="5.7479">
        <ele>606.90002441406</ele>
        <time>2012-11-25T14:49:08Z</time>
      </trkpt>
      <trkpt lat="45.6094" lon="5.74777">
        <ele>607.59997558594</ele>
        <time>2012-11-25T14:49:15Z</time>
      </trkpt>
      <trkpt lat="45.60943" lon="5.74763">
        <ele>608.30004882812</ele>
        <time>2012-11-25T14:49:24Z</time>
      </trkpt>
      <trkpt lat="45.60948" lon="5.74736">
        <ele>609</ele>
        <time>2012-11-25T14:49:39Z</time>
      </trkpt>
      <trkpt lat="45.60948" lon="5.74723">
        <ele>611.90002441406</ele>
        <time>2012-11-25T14:49:44Z</time>
      </trkpt>
      <trkpt lat="45.60948" lon="5.74709">
        <ele>612.5</ele>
        <time>2012-11-25T14:49:50Z</time>
      </trkpt>
      <trkpt lat="45.60948" lon="5.74696">
        <ele>614.19995117188</ele>
        <time>2012-11-25T14:49:56Z</time>
      </trkpt>
      <trkpt lat="45.60949" lon="5.74683">
        <ele>616</ele>
        <time>2012-11-25T14:50:02Z</time>
      </trkpt>
      <trkpt lat="45.6095" lon="5.74669">
        <ele>617.80004882812</ele>
        <time>2012-11-25T14:50:09Z</time>
      </trkpt>
      <trkpt lat="45.6095" lon="5.74656">
        <ele>619.19995117188</ele>
        <time>2012-11-25T14:50:15Z</time>
      </trkpt>
      <trkpt lat="45.60951" lon="5.74641">
        <ele>620</ele>
        <time>2012-11-25T14:50:22Z</time>
      </trkpt>
      <trkpt lat="45.60951" lon="5.74627">
        <ele>620.90002441406</ele>
        <time>2012-11-25T14:50:28Z</time>
      </trkpt>
      <trkpt lat="45.60952" lon="5.746">
        <ele>623.5</ele>
        <time>2012-11-25T14:50:41Z</time>
      </trkpt>
      <trkpt lat="45.60955" lon="5.74587">
        <ele>624.09997558594</ele>
        <time>2012-11-25T14:50:48Z</time>
      </trkpt>
      <trkpt lat="45.60962" lon="5.74579">
        <ele>624.19995117188</ele>
        <time>2012-11-25T14:50:53Z</time>
      </trkpt>
      <trkpt lat="45.60971" lon="5.74583">
        <ele>624.30004882812</ele>
        <time>2012-11-25T14:50:59Z</time>
      </trkpt>
      <trkpt lat="45.60987" lon="5.74596">
        <ele>625.09997558594</ele>
        <time>2012-11-25T14:51:11Z</time>
      </trkpt>
      <trkpt lat="45.60996" lon="5.74604">
        <ele>627.30004882812</ele>
        <time>2012-11-25T14:51:17Z</time>
      </trkpt>
      <trkpt lat="45.61003" lon="5.74615">
        <ele>628.09997558594</ele>
        <time>2012-11-25T14:51:24Z</time>
      </trkpt>
      <trkpt lat="45.61011" lon="5.74623">
        <ele>629.09997558594</ele>
        <time>2012-11-25T14:51:31Z</time>
      </trkpt>
      <trkpt lat="45.61019" lon="5.74632">
        <ele>629.90002441406</ele>
        <time>2012-11-25T14:51:38Z</time>
      </trkpt>
      <trkpt lat="45.61026" lon="5.74642">
        <ele>631.09997558594</ele>
        <time>2012-11-25T14:52:02Z</time>
      </trkpt>
      <trkpt lat="45.61035" lon="5.7465">
        <ele>633.69995117188</ele>
        <time>2012-11-25T14:53:17Z</time>
      </trkpt>
      <trkpt lat="45.61043" lon="5.74656">
        <ele>634.09997558594</ele>
        <time>2012-11-25T14:53:27Z</time>
      </trkpt>
      <trkpt lat="45.61052" lon="5.74663">
        <ele>634.59997558594</ele>
        <time>2012-11-25T14:53:34Z</time>
      </trkpt>
      <trkpt lat="45.6106" lon="5.7467">
        <ele>635.59997558594</ele>
        <time>2012-11-25T14:53:41Z</time>
      </trkpt>
      <trkpt lat="45.61071" lon="5.74673">
        <ele>636.30004882812</ele>
        <time>2012-11-25T14:53:47Z</time>
      </trkpt>
      <trkpt lat="45.6108" lon="5.7467">
        <ele>638.19995117188</ele>
        <time>2012-11-25T14:53:51Z</time>
      </trkpt>
      <trkpt lat="45.61089" lon="5.74664">
        <ele>638.59997558594</ele>
        <time>2012-11-25T14:53:57Z</time>
      </trkpt>
      <trkpt lat="45.61098" lon="5.74657">
        <ele>638.59997558594</ele>
        <time>2012-11-25T14:54:03Z</time>
      </trkpt>
      <trkpt lat="45.61108" lon="5.74654">
        <ele>639.40002441406</ele>
        <time>2012-11-25T14:54:08Z</time>
      </trkpt>
      <trkpt lat="45.61126" lon="5.74647">
        <ele>642</ele>
        <time>2012-11-25T14:54:24Z</time>
      </trkpt>
      <trkpt lat="45.61135" lon="5.74642">
        <ele>642.59997558594</ele>
        <time>2012-11-25T14:54:31Z</time>
      </trkpt>
      <trkpt lat="45.61143" lon="5.74637">
        <ele>643.59997558594</ele>
        <time>2012-11-25T14:54:37Z</time>
      </trkpt>
      <trkpt lat="45.61153" lon="5.74631">
        <ele>646.30004882812</ele>
        <time>2012-11-25T14:54:43Z</time>
      </trkpt>
      <trkpt lat="45.61162" lon="5.74622">
        <ele>647.69995117188</ele>
        <time>2012-11-25T14:54:49Z</time>
      </trkpt>
      <trkpt lat="45.61172" lon="5.74614">
        <ele>648.69995117188</ele>
        <time>2012-11-25T14:54:53Z</time>
      </trkpt>
      <trkpt lat="45.6118" lon="5.74602">
        <ele>649.59997558594</ele>
        <time>2012-11-25T14:54:56Z</time>
      </trkpt>
      <trkpt lat="45.61186" lon="5.7459">
        <ele>651</ele>
        <time>2012-11-25T14:54:58Z</time>
      </trkpt>
      <trkpt lat="45.61192" lon="5.74577">
        <ele>652.40002441406</ele>
        <time>2012-11-25T14:55:00Z</time>
      </trkpt>
      <trkpt lat="45.61197" lon="5.74563">
        <ele>653.80004882812</ele>
        <time>2012-11-25T14:55:02Z</time>
      </trkpt>
      <trkpt lat="45.61202" lon="5.74549">
        <ele>655</ele>
        <time>2012-11-25T14:55:04Z</time>
      </trkpt>
      <trkpt lat="45.61207" lon="5.74535">
        <ele>656.30004882812</ele>
        <time>2012-11-25T14:55:06Z</time>
      </trkpt>
      <trkpt lat="45.61213" lon="5.74519">
        <ele>658</ele>
        <time>2012-11-25T14:55:08Z</time>
      </trkpt>
      <trkpt lat="45.6122" lon="5.74498">
        <ele>660.5</ele>
        <time>2012-11-25T14:55:10Z</time>
      </trkpt>
      <trkpt lat="45.6123" lon="5.74477">
        <ele>663</ele>
        <time>2012-11-25T14:55:12Z</time>
      </trkpt>
      <trkpt lat="45.61241" lon="5.74461">
        <ele>664.40002441406</ele>
        <time>2012-11-25T14:55:14Z</time>
      </trkpt>
      <trkpt lat="45.61268" lon="5.74444">
        <ele>667.80004882812</ele>
        <time>2012-11-25T14:55:18Z</time>
      </trkpt>
      <trkpt lat="45.61293" lon="5.7444">
        <ele>670.09997558594</ele>
        <time>2012-11-25T14:55:22Z</time>
      </trkpt>
      <trkpt lat="45.61313" lon="5.74436">
        <ele>673</ele>
        <time>2012-11-25T14:55:26Z</time>
      </trkpt>
      <trkpt lat="45.61324" lon="5.74433">
        <ele>674.59997558594</ele>
        <time>2012-11-25T14:55:29Z</time>
      </trkpt>
      <trkpt lat="45.61335" lon="5.7443">
        <ele>676.69995117188</ele>
        <time>2012-11-25T14:55:34Z</time>
      </trkpt>
      <trkpt lat="45.61344" lon="5.74425">
        <ele>678.90002441406</ele>
        <time>2012-11-25T14:55:38Z</time>
      </trkpt>
      <trkpt lat="45.61354" lon="5.74417">
        <ele>681</ele>
        <time>2012-11-25T14:55:42Z</time>
      </trkpt>
      <trkpt lat="45.61375" lon="5.74399">
        <ele>682.59997558594</ele>
        <time>2012-11-25T14:55:48Z</time>
      </trkpt>
      <trkpt lat="45.61384" lon="5.7439">
        <ele>683.09997558594</ele>
        <time>2012-11-25T14:55:51Z</time>
      </trkpt>
      <trkpt lat="45.61392" lon="5.74381">
        <ele>683.69995117188</ele>
        <time>2012-11-25T14:55:54Z</time>
      </trkpt>
      <trkpt lat="45.61399" lon="5.7437">
        <ele>684.30004882812</ele>
        <time>2012-11-25T14:55:58Z</time>
      </trkpt>
      <trkpt lat="45.61405" lon="5.74359">
        <ele>684.69995117188</ele>
        <time>2012-11-25T14:56:05Z</time>
      </trkpt>
      <trkpt lat="45.6141" lon="5.74347">
        <ele>683.5</ele>
        <time>2012-11-25T14:56:13Z</time>
      </trkpt>
      <trkpt lat="45.61416" lon="5.74336">
        <ele>682.59997558594</ele>
        <time>2012-11-25T14:56:20Z</time>
      </trkpt>
      <trkpt lat="45.61421" lon="5.74324">
        <ele>681.5</ele>
        <time>2012-11-25T14:56:27Z</time>
      </trkpt>
      <trkpt lat="45.61429" lon="5.74316">
        <ele>680.40002441406</ele>
        <time>2012-11-25T14:56:34Z</time>
      </trkpt>
      <trkpt lat="45.6144" lon="5.74313">
        <ele>679.40002441406</ele>
        <time>2012-11-25T14:56:40Z</time>
      </trkpt>
      <trkpt lat="45.61449" lon="5.74309">
        <ele>678.30004882812</ele>
        <time>2012-11-25T14:56:46Z</time>
      </trkpt>
      <trkpt lat="45.61458" lon="5.74302">
        <ele>677.5</ele>
        <time>2012-11-25T14:56:52Z</time>
      </trkpt>
      <trkpt lat="45.61459" lon="5.74283">
        <ele>676.90002441406</ele>
        <time>2012-11-25T14:56:57Z</time>
      </trkpt>
      <trkpt lat="45.6145" lon="5.74251">
        <ele>676.90002441406</ele>
        <time>2012-11-25T14:57:01Z</time>
      </trkpt>
      <trkpt lat="45.61445" lon="5.74235">
        <ele>676.90002441406</ele>
        <time>2012-11-25T14:57:03Z</time>
      </trkpt>
      <trkpt lat="45.6144" lon="5.7422">
        <ele>677.30004882812</ele>
        <time>2012-11-25T14:57:05Z</time>
      </trkpt>
      <trkpt lat="45.61435" lon="5.74206">
        <ele>677.90002441406</ele>
        <time>2012-11-25T14:57:07Z</time>
      </trkpt>
      <trkpt lat="45.6143" lon="5.74192">
        <ele>678.09997558594</ele>
        <time>2012-11-25T14:57:09Z</time>
      </trkpt>
      <trkpt lat="45.61425" lon="5.74178">
        <ele>678.09997558594</ele>
        <time>2012-11-25T14:57:11Z</time>
      </trkpt>
      <trkpt lat="45.6142" lon="5.74164">
        <ele>678.5</ele>
        <time>2012-11-25T14:57:13Z</time>
      </trkpt>
      <trkpt lat="45.61415" lon="5.7415">
        <ele>678.80004882812</ele>
        <time>2012-11-25T14:57:15Z</time>
      </trkpt>
      <trkpt lat="45.6141" lon="5.74136">
        <ele>678.80004882812</ele>
        <time>2012-11-25T14:57:17Z</time>
      </trkpt>
      <trkpt lat="45.61405" lon="5.74124">
        <ele>679</ele>
        <time>2012-11-25T14:57:19Z</time>
      </trkpt>
      <trkpt lat="45.61394" lon="5.74099">
        <ele>678.90002441406</ele>
        <time>2012-11-25T14:57:23Z</time>
      </trkpt>
      <trkpt lat="45.61388" lon="5.7407">
        <ele>679.19995117188</ele>
        <time>2012-11-25T14:57:27Z</time>
      </trkpt>
      <trkpt lat="45.61397" lon="5.7404">
        <ele>679.40002441406</ele>
        <time>2012-11-25T14:57:31Z</time>
      </trkpt>
      <trkpt lat="45.61413" lon="5.74012">
        <ele>679.40002441406</ele>
        <time>2012-11-25T14:57:35Z</time>
      </trkpt>
      <trkpt lat="45.61425" lon="5.73987">
        <ele>679.19995117188</ele>
        <time>2012-11-25T14:57:39Z</time>
      </trkpt>
      <trkpt lat="45.6144" lon="5.73964">
        <ele>679.40002441406</ele>
        <time>2012-11-25T14:57:44Z</time>
      </trkpt>
      <trkpt lat="45.61445" lon="5.73937">
        <ele>678.19995117188</ele>
        <time>2012-11-25T14:57:54Z</time>
      </trkpt>
      <trkpt lat="45.61445" lon="5.73921">
        <ele>678.5</ele>
        <time>2012-11-25T14:57:59Z</time>
      </trkpt>
      <trkpt lat="45.61443" lon="5.73908">
        <ele>679.19995117188</ele>
        <time>2012-11-25T14:58:04Z</time>
      </trkpt>
      <trkpt lat="45.61439" lon="5.73893">
        <ele>680.30004882812</ele>
        <time>2012-11-25T14:58:09Z</time>
      </trkpt>
      <trkpt lat="45.61435" lon="5.73881">
        <ele>680.80004882812</ele>
        <time>2012-11-25T14:58:15Z</time>
      </trkpt>
      <trkpt lat="45.6143" lon="5.73869">
        <ele>681</ele>
        <time>2012-11-25T14:58:20Z</time>
      </trkpt>
      <trkpt lat="45.61427" lon="5.73856">
        <ele>681.19995117188</ele>
        <time>2012-11-25T14:58:24Z</time>
      </trkpt>
      <trkpt lat="45.61426" lon="5.7384">
        <ele>681.19995117188</ele>
        <time>2012-11-25T14:58:27Z</time>
      </trkpt>
      <trkpt lat="45.61425" lon="5.73824">
        <ele>680.59997558594</ele>
        <time>2012-11-25T14:58:30Z</time>
      </trkpt>
      <trkpt lat="45.61424" lon="5.73808">
        <ele>680.5</ele>
        <time>2012-11-25T14:58:33Z</time>
      </trkpt>
      <trkpt lat="45.61425" lon="5.73793">
        <ele>680.40002441406</ele>
        <time>2012-11-25T14:58:36Z</time>
      </trkpt>
      <trkpt lat="45.6143" lon="5.73778">
        <ele>680.59997558594</ele>
        <time>2012-11-25T14:58:39Z</time>
      </trkpt>
      <trkpt lat="45.61445" lon="5.73759">
        <ele>680.90002441406</ele>
        <time>2012-11-25T14:58:48Z</time>
      </trkpt>
      <trkpt lat="45.61448" lon="5.73746">
        <ele>680.40002441406</ele>
        <time>2012-11-25T14:58:55Z</time>
      </trkpt>
      <trkpt lat="45.61448" lon="5.73731">
        <ele>679.40002441406</ele>
        <time>2012-11-25T14:59:02Z</time>
      </trkpt>
      <trkpt lat="45.61444" lon="5.73719">
        <ele>678.90002441406</ele>
        <time>2012-11-25T14:59:08Z</time>
      </trkpt>
      <trkpt lat="45.6144" lon="5.73707">
        <ele>678</ele>
        <time>2012-11-25T14:59:14Z</time>
      </trkpt>
      <trkpt lat="45.61437" lon="5.73695">
        <ele>678.09997558594</ele>
        <time>2012-11-25T14:59:24Z</time>
      </trkpt>
      <trkpt lat="45.61436" lon="5.73681">
        <ele>677.19995117188</ele>
        <time>2012-11-25T14:59:37Z</time>
      </trkpt>
      <trkpt lat="45.61442" lon="5.7367">
        <ele>677</ele>
        <time>2012-11-25T14:59:44Z</time>
      </trkpt>
      <trkpt lat="45.6145" lon="5.73662">
        <ele>677</ele>
        <time>2012-11-25T14:59:51Z</time>
      </trkpt>
      <trkpt lat="45.61459" lon="5.73655">
        <ele>676</ele>
        <time>2012-11-25T14:59:58Z</time>
      </trkpt>
      <trkpt lat="45.61466" lon="5.73646">
        <ele>676.19995117188</ele>
        <time>2012-11-25T15:00:04Z</time>
      </trkpt>
      <trkpt lat="45.61473" lon="5.73636">
        <ele>675.80004882812</ele>
        <time>2012-11-25T15:00:11Z</time>
      </trkpt>
      <trkpt lat="45.6148" lon="5.73625">
        <ele>675.19995117188</ele>
        <time>2012-11-25T15:00:18Z</time>
      </trkpt>
      <trkpt lat="45.61486" lon="5.73614">
        <ele>674.5</ele>
        <time>2012-11-25T15:00:24Z</time>
      </trkpt>
      <trkpt lat="45.61491" lon="5.73601">
        <ele>674.69995117188</ele>
        <time>2012-11-25T15:00:30Z</time>
      </trkpt>
      <trkpt lat="45.61494" lon="5.73588">
        <ele>673.69995117188</ele>
        <time>2012-11-25T15:00:36Z</time>
      </trkpt>
      <trkpt lat="45.61498" lon="5.73575">
        <ele>673</ele>
        <time>2012-11-25T15:00:42Z</time>
      </trkpt>
      <trkpt lat="45.61502" lon="5.73564">
        <ele>672.30004882812</ele>
        <time>2012-11-25T15:00:48Z</time>
      </trkpt>
      <trkpt lat="45.61507" lon="5.73551">
        <ele>672.30004882812</ele>
        <time>2012-11-25T15:00:54Z</time>
      </trkpt>
      <trkpt lat="45.61512" lon="5.73538">
        <ele>672.30004882812</ele>
        <time>2012-11-25T15:01:00Z</time>
      </trkpt>
      <trkpt lat="45.61517" lon="5.73525">
        <ele>672.59997558594</ele>
        <time>2012-11-25T15:01:05Z</time>
      </trkpt>
      <trkpt lat="45.61521" lon="5.73512">
        <ele>673.69995117188</ele>
        <time>2012-11-25T15:01:10Z</time>
      </trkpt>
      <trkpt lat="45.61531" lon="5.73489">
        <ele>674</ele>
        <time>2012-11-25T15:01:23Z</time>
      </trkpt>
      <trkpt lat="45.61542" lon="5.73466">
        <ele>672.69995117188</ele>
        <time>2012-11-25T15:01:36Z</time>
      </trkpt>
      <trkpt lat="45.61546" lon="5.73452">
        <ele>672.90002441406</ele>
        <time>2012-11-25T15:01:42Z</time>
      </trkpt>
      <trkpt lat="45.61553" lon="5.73426">
        <ele>675.69995117188</ele>
        <time>2012-11-25T15:01:53Z</time>
      </trkpt>
      <trkpt lat="45.61562" lon="5.73401">
        <ele>678</ele>
        <time>2012-11-25T15:02:05Z</time>
      </trkpt>
      <trkpt lat="45.61565" lon="5.73388">
        <ele>680.09997558594</ele>
        <time>2012-11-25T15:02:11Z</time>
      </trkpt>
      <trkpt lat="45.61568" lon="5.73374">
        <ele>682.09997558594</ele>
        <time>2012-11-25T15:02:17Z</time>
      </trkpt>
      <trkpt lat="45.61571" lon="5.7336">
        <ele>684</ele>
        <time>2012-11-25T15:02:23Z</time>
      </trkpt>
      <trkpt lat="45.61575" lon="5.73348">
        <ele>685.5</ele>
        <time>2012-11-25T15:02:29Z</time>
      </trkpt>
      <trkpt lat="45.61582" lon="5.73337">
        <ele>685.5</ele>
        <time>2012-11-25T15:02:45Z</time>
      </trkpt>
      <trkpt lat="45.61638" lon="5.73397">
        <ele>678.5</ele>
        <time>2012-11-25T15:03:03Z</time>
      </trkpt>
      <trkpt lat="45.61665" lon="5.73416">
        <ele>677.90002441406</ele>
        <time>2012-11-25T15:03:20Z</time>
      </trkpt>
      <trkpt lat="45.61691" lon="5.73436">
        <ele>679.59997558594</ele>
        <time>2012-11-25T15:03:40Z</time>
      </trkpt>
      <trkpt lat="45.61708" lon="5.73446">
        <ele>679.5</ele>
        <time>2012-11-25T15:03:53Z</time>
      </trkpt>
      <trkpt lat="45.61727" lon="5.73453">
        <ele>680</ele>
        <time>2012-11-25T15:04:07Z</time>
      </trkpt>
      <trkpt lat="45.61746" lon="5.73454">
        <ele>681.69995117188</ele>
        <time>2012-11-25T15:04:20Z</time>
      </trkpt>
      <trkpt lat="45.61775" lon="5.73447">
        <ele>684.90002441406</ele>
        <time>2012-11-25T15:04:40Z</time>
      </trkpt>
      <trkpt lat="45.61794" lon="5.7344">
        <ele>685.40002441406</ele>
        <time>2012-11-25T15:04:53Z</time>
      </trkpt>
      <trkpt lat="45.61823" lon="5.7343">
        <ele>687.69995117188</ele>
        <time>2012-11-25T15:05:14Z</time>
      </trkpt>
      <trkpt lat="45.61842" lon="5.73424">
        <ele>687.40002441406</ele>
        <time>2012-11-25T15:05:26Z</time>
      </trkpt>
      <trkpt lat="45.61861" lon="5.73417">
        <ele>689</ele>
        <time>2012-11-25T15:05:38Z</time>
      </trkpt>
      <trkpt lat="45.61881" lon="5.73413">
        <ele>691.09997558594</ele>
        <time>2012-11-25T15:05:50Z</time>
      </trkpt>
      <trkpt lat="45.61899" lon="5.73407">
        <ele>694.80004882812</ele>
        <time>2012-11-25T15:06:02Z</time>
      </trkpt>
      <trkpt lat="45.61918" lon="5.73403">
        <ele>696.90002441406</ele>
        <time>2012-11-25T15:06:16Z</time>
      </trkpt>
      <trkpt lat="45.61939" lon="5.73399">
        <ele>698.69995117188</ele>
        <time>2012-11-25T15:06:30Z</time>
      </trkpt>
      <trkpt lat="45.61958" lon="5.73399">
        <ele>700.09997558594</ele>
        <time>2012-11-25T15:06:42Z</time>
      </trkpt>
      <trkpt lat="45.61985" lon="5.7339">
        <ele>702.90002441406</ele>
        <time>2012-11-25T15:06:59Z</time>
      </trkpt>
      <trkpt lat="45.62002" lon="5.73377">
        <ele>705.59997558594</ele>
        <time>2012-11-25T15:07:11Z</time>
      </trkpt>
      <trkpt lat="45.62018" lon="5.73364">
        <ele>707.90002441406</ele>
        <time>2012-11-25T15:07:23Z</time>
      </trkpt>
      <trkpt lat="45.62028" lon="5.73342">
        <ele>711</ele>
        <time>2012-11-25T15:07:35Z</time>
      </trkpt>
      <trkpt lat="45.62033" lon="5.73314">
        <ele>714.09997558594</ele>
        <time>2012-11-25T15:07:48Z</time>
      </trkpt>
      <trkpt lat="45.62036" lon="5.73286">
        <ele>715</ele>
        <time>2012-11-25T15:07:56Z</time>
      </trkpt>
      <trkpt lat="45.62034" lon="5.73255">
        <ele>715.69995117188</ele>
        <time>2012-11-25T15:08:02Z</time>
      </trkpt>
      <trkpt lat="45.62032" lon="5.73227">
        <ele>716.19995117188</ele>
        <time>2012-11-25T15:08:08Z</time>
      </trkpt>
      <trkpt lat="45.62025" lon="5.73201">
        <ele>717.19995117188</ele>
        <time>2012-11-25T15:08:21Z</time>
      </trkpt>
      <trkpt lat="45.62019" lon="5.73191">
        <ele>718.30004882812</ele>
        <time>2012-11-25T15:08:27Z</time>
      </trkpt>
      <trkpt lat="45.62005" lon="5.73172">
        <ele>719.80004882812</ele>
        <time>2012-11-25T15:08:39Z</time>
      </trkpt>
      <trkpt lat="45.6199" lon="5.73155">
        <ele>719.69995117188</ele>
        <time>2012-11-25T15:08:52Z</time>
      </trkpt>
      <trkpt lat="45.61977" lon="5.73135">
        <ele>719.80004882812</ele>
        <time>2012-11-25T15:09:03Z</time>
      </trkpt>
      <trkpt lat="45.61974" lon="5.73123">
        <ele>719.90002441406</ele>
        <time>2012-11-25T15:09:10Z</time>
      </trkpt>
      <trkpt lat="45.61976" lon="5.7311">
        <ele>719.80004882812</ele>
        <time>2012-11-25T15:09:16Z</time>
      </trkpt>
      <trkpt lat="45.61988" lon="5.73086">
        <ele>719.69995117188</ele>
        <time>2012-11-25T15:09:25Z</time>
      </trkpt>
      <trkpt lat="45.62" lon="5.73065">
        <ele>719.80004882812</ele>
        <time>2012-11-25T15:09:36Z</time>
      </trkpt>
      <trkpt lat="45.62014" lon="5.73044">
        <ele>720.80004882812</ele>
        <time>2012-11-25T15:09:49Z</time>
      </trkpt>
      <trkpt lat="45.62026" lon="5.73023">
        <ele>720.5</ele>
        <time>2012-11-25T15:10:01Z</time>
      </trkpt>
      <trkpt lat="45.62037" lon="5.73003">
        <ele>720.90002441406</ele>
        <time>2012-11-25T15:10:12Z</time>
      </trkpt>
      <trkpt lat="45.62052" lon="5.72984">
        <ele>723.09997558594</ele>
        <time>2012-11-25T15:10:27Z</time>
      </trkpt>
      <trkpt lat="45.62069" lon="5.72972">
        <ele>723.09997558594</ele>
        <time>2012-11-25T15:10:40Z</time>
      </trkpt>
      <trkpt lat="45.62088" lon="5.72967">
        <ele>723</ele>
        <time>2012-11-25T15:10:54Z</time>
      </trkpt>
      <trkpt lat="45.62108" lon="5.72963">
        <ele>723.40002441406</ele>
        <time>2012-11-25T15:11:08Z</time>
      </trkpt>
      <trkpt lat="45.62127" lon="5.72959">
        <ele>721.69995117188</ele>
        <time>2012-11-25T15:11:20Z</time>
      </trkpt>
      <trkpt lat="45.62145" lon="5.72948">
        <ele>720.90002441406</ele>
        <time>2012-11-25T15:11:34Z</time>
      </trkpt>
      <trkpt lat="45.62153" lon="5.7294">
        <ele>720.5</ele>
        <time>2012-11-25T15:11:41Z</time>
      </trkpt>
      <trkpt lat="45.62159" lon="5.7293">
        <ele>719.90002441406</ele>
        <time>2012-11-25T15:11:47Z</time>
      </trkpt>
      <trkpt lat="45.62166" lon="5.7292">
        <ele>719.59997558594</ele>
        <time>2012-11-25T15:11:53Z</time>
      </trkpt>
      <trkpt lat="45.62172" lon="5.7291">
        <ele>718.80004882812</ele>
        <time>2012-11-25T15:11:59Z</time>
      </trkpt>
      <trkpt lat="45.6218" lon="5.729">
        <ele>718.59997558594</ele>
        <time>2012-11-25T15:12:06Z</time>
      </trkpt>
      <trkpt lat="45.62189" lon="5.72895">
        <ele>718.80004882812</ele>
        <time>2012-11-25T15:12:12Z</time>
      </trkpt>
      <trkpt lat="45.62208" lon="5.72888">
        <ele>719.40002441406</ele>
        <time>2012-11-25T15:12:25Z</time>
      </trkpt>
      <trkpt lat="45.62227" lon="5.72887">
        <ele>717.59997558594</ele>
        <time>2012-11-25T15:12:38Z</time>
      </trkpt>
      <trkpt lat="45.62236" lon="5.72884">
        <ele>716.80004882812</ele>
        <time>2012-11-25T15:12:44Z</time>
      </trkpt>
      <trkpt lat="45.62245" lon="5.72879">
        <ele>715.69995117188</ele>
        <time>2012-11-25T15:12:50Z</time>
      </trkpt>
      <trkpt lat="45.62253" lon="5.72871">
        <ele>716.19995117188</ele>
        <time>2012-11-25T15:12:56Z</time>
      </trkpt>
      <trkpt lat="45.62261" lon="5.7286">
        <ele>715.40002441406</ele>
        <time>2012-11-25T15:13:03Z</time>
      </trkpt>
      <trkpt lat="45.62265" lon="5.72849">
        <ele>715.19995117188</ele>
        <time>2012-11-25T15:13:09Z</time>
      </trkpt>
      <trkpt lat="45.6227" lon="5.72836">
        <ele>715.40002441406</ele>
        <time>2012-11-25T15:13:15Z</time>
      </trkpt>
      <trkpt lat="45.62273" lon="5.72824">
        <ele>715</ele>
        <time>2012-11-25T15:13:20Z</time>
      </trkpt>
      <trkpt lat="45.62277" lon="5.7281">
        <ele>716.19995117188</ele>
        <time>2012-11-25T15:13:26Z</time>
      </trkpt>
      <trkpt lat="45.6229" lon="5.72789">
        <ele>716.30004882812</ele>
        <time>2012-11-25T15:13:37Z</time>
      </trkpt>
      <trkpt lat="45.62317" lon="5.72772">
        <ele>715.69995117188</ele>
        <time>2012-11-25T15:13:47Z</time>
      </trkpt>
      <trkpt lat="45.62335" lon="5.72758">
        <ele>715.5</ele>
        <time>2012-11-25T15:13:55Z</time>
      </trkpt>
      <trkpt lat="45.62353" lon="5.72744">
        <ele>715.09997558594</ele>
        <time>2012-11-25T15:14:02Z</time>
      </trkpt>
      <trkpt lat="45.6237" lon="5.72734">
        <ele>713.59997558594</ele>
        <time>2012-11-25T15:14:14Z</time>
      </trkpt>
      <trkpt lat="45.62388" lon="5.72721">
        <ele>713.30004882812</ele>
        <time>2012-11-25T15:14:27Z</time>
      </trkpt>
      <trkpt lat="45.62406" lon="5.72708">
        <ele>715.30004882812</ele>
        <time>2012-11-25T15:14:41Z</time>
      </trkpt>
      <trkpt lat="45.62414" lon="5.72702">
        <ele>715</ele>
        <time>2012-11-25T15:14:48Z</time>
      </trkpt>
      <trkpt lat="45.62423" lon="5.72696">
        <ele>714.80004882812</ele>
        <time>2012-11-25T15:14:54Z</time>
      </trkpt>
      <trkpt lat="45.62432" lon="5.7269">
        <ele>714.5</ele>
        <time>2012-11-25T15:15:01Z</time>
      </trkpt>
      <trkpt lat="45.6244" lon="5.72684">
        <ele>714.09997558594</ele>
        <time>2012-11-25T15:15:06Z</time>
      </trkpt>
      <trkpt lat="45.62457" lon="5.72671">
        <ele>716.90002441406</ele>
        <time>2012-11-25T15:16:08Z</time>
      </trkpt>
      <trkpt lat="45.62466" lon="5.72668">
        <ele>717.09997558594</ele>
        <time>2012-11-25T15:16:13Z</time>
      </trkpt>
      <trkpt lat="45.62486" lon="5.72661">
        <ele>719.09997558594</ele>
        <time>2012-11-25T15:16:27Z</time>
      </trkpt>
      <trkpt lat="45.62505" lon="5.72652">
        <ele>725.5</ele>
        <time>2012-11-25T15:16:43Z</time>
      </trkpt>
      <trkpt lat="45.62523" lon="5.72642">
        <ele>728.90002441406</ele>
        <time>2012-11-25T15:17:00Z</time>
      </trkpt>
      <trkpt lat="45.62541" lon="5.72635">
        <ele>728.40002441406</ele>
        <time>2012-11-25T15:17:15Z</time>
      </trkpt>
      <trkpt lat="45.62559" lon="5.72631">
        <ele>727.90002441406</ele>
        <time>2012-11-25T15:17:27Z</time>
      </trkpt>
      <trkpt lat="45.62577" lon="5.72627">
        <ele>728</ele>
        <time>2012-11-25T15:17:41Z</time>
      </trkpt>
      <trkpt lat="45.62595" lon="5.72624">
        <ele>727.09997558594</ele>
        <time>2012-11-25T15:17:56Z</time>
      </trkpt>
      <trkpt lat="45.62615" lon="5.7262">
        <ele>725.90002441406</ele>
        <time>2012-11-25T15:18:11Z</time>
      </trkpt>
      <trkpt lat="45.62634" lon="5.72617">
        <ele>725.30004882812</ele>
        <time>2012-11-25T15:18:26Z</time>
      </trkpt>
      <trkpt lat="45.62653" lon="5.72617">
        <ele>724.90002441406</ele>
        <time>2012-11-25T15:19:25Z</time>
      </trkpt>
      <trkpt lat="45.6265" lon="5.7263">
        <ele>721.19995117188</ele>
        <time>2012-11-25T15:19:39Z</time>
      </trkpt>
      <trkpt lat="45.62637" lon="5.72649">
        <ele>718.69995117188</ele>
        <time>2012-11-25T15:19:52Z</time>
      </trkpt>
      <trkpt lat="45.62634" lon="5.72662">
        <ele>717</ele>
        <time>2012-11-25T15:19:59Z</time>
      </trkpt>
      <trkpt lat="45.62635" lon="5.72651">
        <ele>710.09997558594</ele>
        <time>2012-11-25T15:26:03Z</time>
      </trkpt>
      <trkpt lat="45.62639" lon="5.72653">
        <ele>704</ele>
        <time>2012-11-25T15:28:36Z</time>
      </trkpt>
      <trkpt lat="45.6263" lon="5.72649">
        <ele>706.80004882812</ele>
        <time>2012-11-25T15:29:58Z</time>
      </trkpt>
    </trkseg>
  </trk>
</gpx>